createdAt,value
2023-05-21T00:01:02.816Z,61.68
2023-05-21T00:03:30.494Z,61.73
2023-05-21T00:05:57.979Z,61.98
2023-05-21T00:08:25.327Z,62.02
2023-05-21T00:10:52.657Z,61.83
2023-05-21T00:13:20.164Z,61.49
2023-05-21T00:15:47.653Z,61.72
2023-05-21T00:18:15.047Z,61.71
2023-05-21T00:20:42.387Z,61.87
2023-05-21T00:23:09.715Z,61.92
2023-05-21T00:25:37.210Z,61.95
2023-05-21T00:28:05.070Z,62.05
2023-05-21T00:30:32.433Z,62.06
2023-05-21T00:32:59.820Z,61.89
2023-05-21T00:35:27.195Z,61.88
2023-05-21T00:37:54.466Z,61.87
2023-05-21T00:40:22.269Z,61.73
2023-05-21T00:42:49.513Z,61.90
2023-05-21T00:45:16.856Z,61.94
2023-05-21T00:47:45.629Z,61.93
2023-05-21T00:50:13.144Z,61.84
2023-05-21T00:52:40.753Z,61.96
2023-05-21T00:55:09.644Z,61.98
2023-05-21T00:57:37.793Z,62.07
2023-05-21T01:00:06.480Z,61.79
2023-05-21T01:02:35.767Z,62.09
2023-05-21T01:05:05.220Z,62.07
2023-05-21T01:07:35.093Z,61.81
2023-05-21T01:10:08.594Z,62.13
2023-05-21T01:12:38.986Z,62.18
2023-05-21T01:15:07.663Z,62.05
2023-05-21T01:17:35.658Z,62.42
2023-05-21T01:20:06.781Z,62.20
2023-05-21T01:22:36.914Z,62.14
2023-05-21T01:25:05.387Z,62.25
2023-05-21T01:27:32.956Z,62.34
2023-05-21T01:30:00.798Z,62.14
2023-05-21T01:33:04.762Z,62.39
2023-05-21T01:35:41.948Z,62.35
2023-05-21T01:38:24.968Z,62.21
2023-05-21T01:41:02.189Z,62.13
2023-05-21T01:43:34.077Z,61.99
2023-05-21T01:46:03.141Z,62.39
2023-05-21T01:48:31.875Z,62.26
2023-05-21T01:51:05.035Z,62.17
2023-05-21T01:53:33.293Z,62.25
2023-05-21T01:56:00.619Z,62.25
2023-05-21T01:58:28.264Z,62.28
2023-05-21T02:00:55.862Z,62.18
2023-05-21T02:03:27.027Z,62.33
2023-05-21T02:05:54.873Z,62.45
2023-05-21T02:08:22.198Z,62.42
2023-05-21T02:10:50.583Z,62.51
2023-05-21T02:13:17.890Z,62.34
2023-05-21T02:15:45.651Z,62.31
2023-05-21T02:18:13.442Z,62.21
2023-05-21T02:20:40.656Z,62.24
2023-05-21T02:23:08.206Z,61.93
2023-05-21T02:25:35.997Z,62.08
2023-05-21T02:28:03.867Z,62.22
2023-05-21T02:30:31.390Z,62.04
2023-05-21T02:32:59.134Z,61.88
2023-05-21T02:35:26.632Z,61.84
2023-05-21T02:37:54.503Z,61.60
2023-05-21T02:40:22.051Z,61.66
2023-05-21T02:42:49.395Z,61.61
2023-05-21T02:45:16.729Z,61.41
2023-05-21T02:47:44.121Z,61.26
2023-05-21T02:50:11.642Z,61.30
2023-05-21T02:52:38.947Z,61.28
2023-05-21T02:55:07.116Z,60.99
2023-05-21T02:57:34.500Z,61.20
2023-05-21T03:00:01.840Z,61.12
2023-05-21T03:02:29.243Z,60.72
2023-05-21T03:04:56.557Z,60.55
2023-05-21T03:07:24.602Z,60.56
2023-05-21T03:09:51.833Z,60.63
2023-05-21T03:12:19.103Z,60.70
2023-05-21T03:14:46.616Z,60.51
2023-05-21T03:17:14.159Z,60.54
2023-05-21T03:19:42.376Z,60.78
2023-05-21T03:22:10.122Z,61.06
2023-05-21T03:24:39.122Z,61.21
2023-05-21T03:27:06.683Z,61.08
2023-05-21T03:29:34.992Z,61.27
2023-05-21T03:32:02.913Z,61.20
2023-05-21T03:34:30.463Z,61.11
2023-05-21T03:36:57.769Z,61.16
2023-05-21T03:39:25.101Z,61.19
2023-05-21T03:41:52.585Z,61.31
2023-05-21T03:44:19.901Z,61.61
2023-05-21T03:46:47.207Z,61.71
2023-05-21T03:49:14.987Z,61.45
2023-05-21T03:51:42.307Z,61.73
2023-05-21T03:54:09.622Z,61.58
2023-05-21T03:56:37.090Z,61.59
2023-05-21T03:59:04.359Z,61.73
2023-05-21T04:01:31.637Z,61.83
2023-05-21T04:03:59.529Z,61.71
2023-05-21T04:06:26.879Z,61.79
2023-05-21T04:08:54.256Z,61.53
2023-05-21T04:11:21.667Z,61.65
2023-05-21T04:13:49.050Z,61.93
2023-05-21T04:16:16.470Z,62.16
2023-05-21T04:18:45.515Z,61.75
2023-05-21T04:21:13.836Z,61.97
2023-05-21T04:23:41.208Z,61.91
2023-05-21T04:26:08.587Z,61.94
2023-05-21T04:28:35.860Z,62.04
2023-05-21T04:31:03.289Z,62.05
2023-05-21T04:33:30.612Z,61.77
2023-05-21T04:35:58.094Z,61.94
2023-05-21T04:38:25.565Z,62.18
2023-05-21T04:40:53.346Z,62.32
2023-05-21T04:43:21.325Z,62.48
2023-05-21T04:45:48.767Z,62.27
2023-05-21T04:48:16.120Z,62.47
2023-05-21T04:50:44.026Z,62.36
2023-05-21T04:53:11.394Z,62.43
2023-05-21T04:55:38.742Z,62.29
2023-05-21T04:58:09.243Z,62.25
2023-05-21T05:00:37.880Z,62.39
2023-05-21T05:03:05.528Z,62.43
2023-05-21T05:05:32.927Z,62.50
2023-05-21T05:08:00.320Z,62.76
2023-05-21T05:10:27.760Z,62.70
2023-05-21T05:12:55.024Z,62.67
2023-05-21T05:15:22.468Z,62.60
2023-05-21T05:17:49.792Z,62.69
2023-05-21T05:20:17.188Z,62.66
2023-05-21T05:22:44.533Z,62.62
2023-05-21T05:25:11.818Z,62.51
2023-05-21T05:27:39.060Z,62.44
2023-05-21T05:30:07.708Z,62.39
2023-05-21T05:32:35.066Z,62.32
2023-05-21T05:35:04.035Z,62.14
2023-05-21T05:37:31.336Z,61.92
2023-05-21T05:39:58.584Z,61.63
2023-05-21T05:42:25.808Z,61.68
2023-05-21T05:44:53.091Z,61.62
2023-05-21T05:47:20.394Z,61.23
2023-05-21T05:49:48.169Z,61.39
2023-05-21T05:52:15.760Z,61.23
2023-05-21T05:54:43.115Z,61.11
2023-05-21T05:57:10.469Z,60.93
2023-05-21T05:59:37.814Z,60.95
2023-05-21T06:02:05.351Z,60.90
2023-05-21T06:04:32.670Z,60.91
2023-05-21T06:07:00.245Z,60.96
2023-05-21T06:09:27.648Z,61.01
2023-05-21T06:11:56.011Z,60.91
2023-05-21T06:14:23.348Z,60.37
2023-05-21T06:16:50.786Z,60.03
2023-05-21T06:19:18.754Z,59.94
2023-05-21T06:21:46.235Z,59.73
2023-05-21T06:24:13.708Z,59.88
2023-05-21T06:26:41.049Z,59.42
2023-05-21T06:29:08.700Z,59.40
2023-05-21T06:31:36.149Z,58.98
2023-05-21T06:34:03.753Z,58.44
2023-05-21T06:36:31.332Z,58.05
2023-05-21T06:38:58.773Z,57.55
2023-05-21T06:41:26.049Z,56.64
2023-05-21T06:43:54.699Z,55.72
2023-05-21T06:46:22.118Z,55.32
2023-05-21T06:48:49.449Z,54.83
2023-05-21T06:51:17.855Z,54.35
2023-05-21T06:53:47.649Z,54.42
2023-05-21T06:56:15.067Z,54.24
2023-05-21T06:58:42.379Z,54.42
2023-05-21T07:01:09.951Z,54.21
2023-05-21T07:03:37.672Z,54.61
2023-05-21T07:06:05.101Z,54.76
2023-05-21T07:08:32.612Z,54.86
2023-05-21T07:11:00.375Z,54.57
2023-05-21T07:13:27.598Z,54.19
2023-05-21T07:15:56.610Z,54.05
2023-05-21T07:18:24.060Z,53.78
2023-05-21T07:20:53.575Z,53.86
2023-05-21T07:23:20.977Z,53.84
2023-05-21T07:25:48.408Z,54.18
2023-05-21T07:28:15.968Z,54.00
2023-05-21T07:30:43.612Z,53.69
2023-05-21T07:33:11.050Z,52.73
2023-05-21T07:35:38.616Z,52.31
2023-05-21T07:38:06.251Z,51.80
2023-05-21T07:40:33.874Z,51.61
2023-05-21T07:43:01.330Z,51.64
2023-05-21T07:45:28.675Z,51.09
2023-05-21T07:47:55.976Z,50.75
2023-05-21T07:50:23.296Z,50.87
2023-05-21T07:52:50.833Z,50.13
2023-05-21T07:55:18.302Z,48.91
2023-05-21T07:57:45.588Z,48.17
2023-05-21T08:00:13.832Z,48.50
2023-05-21T08:02:41.527Z,47.72
2023-05-21T08:05:09.515Z,47.73
2023-05-21T08:07:38.747Z,47.03
2023-05-21T08:10:07.015Z,45.95
2023-05-21T08:12:34.446Z,42.96
2023-05-21T08:15:01.823Z,43.12
2023-05-21T08:17:29.302Z,43.20
2023-05-21T08:19:56.745Z,42.89
2023-05-21T08:22:24.017Z,43.17
2023-05-21T08:24:51.637Z,43.68
2023-05-21T08:27:19.052Z,45.55
2023-05-21T08:29:46.495Z,46.65
2023-05-21T08:32:14.316Z,46.29
2023-05-21T08:34:42.152Z,46.53
2023-05-21T08:37:09.395Z,46.50
2023-05-21T08:39:36.754Z,46.71
2023-05-21T08:42:37.348Z,45.52
2023-05-21T08:45:11.410Z,43.91
2023-05-21T08:47:44.313Z,41.60
2023-05-21T08:50:14.561Z,41.93
2023-05-21T08:52:42.226Z,42.12
2023-05-21T08:55:10.173Z,42.16
2023-05-21T08:57:43.293Z,41.12
2023-05-21T09:00:12.311Z,41.28
2023-05-21T09:02:39.743Z,40.55
2023-05-21T09:05:09.078Z,40.19
2023-05-21T09:08:05.892Z,38.82
2023-05-21T09:10:41.297Z,40.06
2023-05-21T09:13:10.564Z,39.23
2023-05-21T09:15:38.329Z,37.39
2023-05-21T09:18:05.905Z,37.57
2023-05-21T09:20:33.266Z,38.13
2023-05-21T09:23:05.950Z,39.41
2023-05-21T09:25:33.693Z,41.53
2023-05-21T09:28:10.973Z,41.89
2023-05-21T09:30:44.451Z,41.54
2023-05-21T09:33:12.072Z,42.50
2023-05-21T09:35:45.861Z,41.30
2023-05-21T09:38:13.319Z,40.09
2023-05-21T09:40:45.327Z,40.69
2023-05-21T09:43:16.401Z,41.71
2023-05-21T09:45:55.062Z,41.63
2023-05-21T09:48:43.215Z,41.76
2023-05-21T09:51:16.763Z,41.81
2023-05-21T09:53:54.029Z,41.66
2023-05-21T09:56:27.070Z,41.06
2023-05-21T09:59:03.647Z,41.56
2023-05-21T10:01:39.208Z,41.53
2023-05-21T10:04:10.338Z,41.16
2023-05-21T10:06:43.508Z,42.14
2023-05-21T10:09:16.205Z,41.04
2023-05-21T10:11:57.014Z,41.01
2023-05-21T10:14:36.099Z,41.36
2023-05-21T10:17:06.585Z,41.59
2023-05-21T10:19:35.215Z,42.14
2023-05-21T10:22:03.485Z,41.70
2023-05-21T10:24:33.234Z,41.87
2023-05-21T10:27:02.378Z,42.21
2023-05-21T10:29:31.352Z,42.07
2023-05-21T10:32:02.308Z,41.11
2023-05-21T10:34:31.374Z,41.52
2023-05-21T10:37:02.004Z,40.95
2023-05-21T10:39:32.342Z,42.24
2023-05-21T10:42:23.672Z,41.03
2023-05-21T10:45:26.296Z,42.63
2023-05-21T10:48:59.679Z,42.54
2023-05-21T10:51:45.238Z,42.48
2023-05-21T10:54:51.396Z,42.16
2023-05-21T10:57:59.497Z,42.58
2023-05-21T11:00:28.494Z,44.21
2023-05-21T11:02:56.154Z,43.43
2023-05-21T11:05:52.064Z,44.12
2023-05-21T11:08:30.376Z,43.53
2023-05-21T11:10:58.894Z,43.66
2023-05-21T11:13:28.676Z,44.15
2023-05-21T11:15:59.555Z,45.23
2023-05-21T11:18:35.862Z,44.25
2023-05-21T11:21:22.470Z,44.45
2023-05-21T11:23:53.315Z,44.72
2023-05-21T11:26:24.101Z,44.38
2023-05-21T11:29:11.484Z,44.76
2023-05-21T11:31:39.363Z,45.94
2023-05-21T11:34:19.093Z,45.41
2023-05-21T11:36:50.210Z,44.24
2023-05-21T11:39:19.057Z,44.55
2023-05-21T11:41:56.994Z,44.46
2023-05-21T11:44:49.699Z,43.97
2023-05-21T11:47:19.594Z,43.86
2023-05-21T11:49:47.298Z,43.28
2023-05-21T11:52:15.240Z,43.07
2023-05-21T11:54:57.478Z,43.38
2023-05-21T11:57:28.972Z,43.84
2023-05-21T11:59:57.309Z,43.81
2023-05-21T12:02:28.572Z,43.39
2023-05-21T12:04:56.394Z,44.24
2023-05-21T12:07:23.973Z,43.71
2023-05-21T12:09:51.954Z,42.89
2023-05-21T12:12:21.984Z,43.04
2023-05-21T12:14:55.064Z,42.60
2023-05-21T12:17:28.300Z,43.53
2023-05-21T12:19:56.166Z,41.30
2023-05-21T12:22:26.646Z,41.77
2023-05-21T12:24:54.246Z,41.93
2023-05-21T12:27:22.854Z,42.35
2023-05-21T12:29:51.564Z,42.42
2023-05-21T12:32:21.347Z,43.28
2023-05-21T12:34:51.386Z,42.88
2023-05-21T12:37:31.210Z,41.76
2023-05-21T12:40:04.323Z,42.76
2023-05-21T12:42:33.581Z,43.21
2023-05-21T12:45:07.871Z,43.15
2023-05-21T12:47:35.828Z,43.95
2023-05-21T12:50:10.305Z,45.28
2023-05-21T12:52:37.742Z,45.54
2023-05-21T12:55:07.118Z,44.69
2023-05-21T12:57:37.979Z,42.93
2023-05-21T13:00:07.319Z,42.47
2023-05-21T13:02:43.175Z,43.13
2023-05-21T13:05:17.665Z,43.54
2023-05-21T13:07:46.720Z,42.20
2023-05-21T13:10:16.336Z,42.87
2023-05-21T13:12:45.466Z,43.96
2023-05-21T13:15:12.896Z,43.78
2023-05-21T13:17:40.375Z,42.92
2023-05-21T13:20:15.315Z,39.67
2023-05-21T13:22:45.202Z,39.34
2023-05-21T13:25:20.274Z,39.20
2023-05-21T13:27:52.487Z,37.84
2023-05-21T13:30:21.482Z,37.33
2023-05-21T13:32:49.451Z,37.74
2023-05-21T13:35:17.618Z,38.29
2023-05-21T13:37:45.651Z,38.37
2023-05-21T13:40:15.283Z,38.49
2023-05-21T13:42:49.052Z,39.28
2023-05-21T13:45:19.549Z,37.22
2023-05-21T13:47:48.781Z,37.47
2023-05-21T13:50:17.329Z,36.28
2023-05-21T13:52:45.357Z,33.91
2023-05-21T13:55:12.836Z,34.75
2023-05-21T13:57:41.107Z,34.01
2023-05-21T14:00:09.494Z,34.44
2023-05-21T14:02:37.264Z,34.82
2023-05-21T14:05:05.421Z,35.56
2023-05-21T14:07:32.954Z,35.63
2023-05-21T14:10:00.793Z,35.32
2023-05-21T14:12:28.090Z,36.04
2023-05-21T14:14:55.460Z,36.34
2023-05-21T14:17:22.848Z,35.63
2023-05-21T14:19:50.148Z,36.84
2023-05-21T14:22:17.460Z,40.14
2023-05-21T14:24:44.740Z,42.96
2023-05-21T14:27:14.554Z,42.58
2023-05-21T14:29:43.309Z,40.64
2023-05-21T14:32:10.664Z,40.08
2023-05-21T14:34:38.175Z,39.99
2023-05-21T14:37:05.815Z,40.82
2023-05-21T14:39:33.165Z,40.88
2023-05-21T14:42:02.810Z,40.55
2023-05-21T14:44:30.643Z,41.77
2023-05-21T14:46:58.296Z,42.30
2023-05-21T14:49:25.645Z,43.00
2023-05-21T14:51:53.103Z,42.96
2023-05-21T14:54:20.416Z,44.21
2023-05-21T14:56:47.734Z,43.75
2023-05-21T14:59:15.328Z,44.42
2023-05-21T15:01:43.300Z,44.71
2023-05-21T15:04:11.140Z,44.67
2023-05-21T15:06:38.485Z,44.78
2023-05-21T15:09:05.996Z,44.81
2023-05-21T15:11:33.532Z,43.70
2023-05-21T15:14:00.819Z,43.83
2023-05-21T15:16:28.492Z,43.23
2023-05-21T15:18:55.910Z,42.91
2023-05-21T15:21:24.388Z,41.85
2023-05-21T15:23:53.332Z,41.18
2023-05-21T15:26:20.797Z,39.83
2023-05-21T15:28:48.104Z,39.38
2023-05-21T15:31:15.477Z,38.82
2023-05-21T15:33:42.782Z,38.10
2023-05-21T15:36:10.243Z,37.37
2023-05-21T15:38:37.756Z,37.98
2023-05-21T15:41:06.120Z,36.90
2023-05-21T15:43:33.737Z,36.85
2023-05-21T15:46:01.118Z,36.11
2023-05-21T15:48:28.761Z,35.69
2023-05-21T15:50:56.054Z,36.13
2023-05-21T15:53:25.787Z,36.39
2023-05-21T15:55:53.084Z,35.88
2023-05-21T15:58:20.381Z,36.63
2023-05-21T16:00:47.912Z,37.07
2023-05-21T16:03:15.380Z,37.17
2023-05-21T16:05:43.016Z,37.49
2023-05-21T16:08:10.564Z,37.96
2023-05-21T16:10:37.898Z,40.44
2023-05-21T16:13:05.183Z,41.96
2023-05-21T16:15:32.525Z,43.56
2023-05-21T16:18:00.309Z,45.31
2023-05-21T16:20:27.931Z,46.40
2023-05-21T16:22:55.253Z,46.84
2023-05-21T16:25:22.560Z,47.03
2023-05-21T16:27:50.378Z,48.00
2023-05-21T16:30:18.110Z,48.31
2023-05-21T16:32:46.078Z,48.96
2023-05-21T16:35:14.038Z,49.54
2023-05-21T16:37:44.558Z,50.38
2023-05-21T16:40:13.107Z,50.85
2023-05-21T16:42:40.656Z,52.03
2023-05-21T16:45:08.755Z,51.94
2023-05-21T16:47:36.057Z,52.66
2023-05-21T16:50:03.460Z,52.58
2023-05-21T16:52:30.806Z,52.79
2023-05-21T16:54:58.293Z,53.52
2023-05-21T16:57:25.573Z,53.71
2023-05-21T16:59:53.539Z,53.53
2023-05-21T17:02:20.978Z,53.80
2023-05-21T17:04:48.410Z,53.80
2023-05-21T17:07:19.872Z,54.45
2023-05-21T17:09:47.285Z,55.32
2023-05-21T17:12:14.875Z,55.54
2023-05-21T17:14:42.224Z,55.84
2023-05-21T17:17:09.911Z,55.76
2023-05-21T17:19:37.647Z,55.67
2023-05-21T17:22:05.999Z,55.18
2023-05-21T17:24:33.773Z,55.40
2023-05-21T17:27:01.543Z,55.99
2023-05-21T17:29:29.071Z,56.02
2023-05-21T17:31:56.862Z,56.74
2023-05-21T17:34:24.563Z,57.17
2023-05-21T17:36:53.675Z,57.19
2023-05-21T17:39:21.336Z,57.16
2023-05-21T17:41:49.042Z,57.27
2023-05-21T17:44:20.185Z,56.96
2023-05-21T17:46:49.970Z,56.63
2023-05-21T17:49:17.970Z,56.94
2023-05-21T17:51:45.728Z,56.64
2023-05-21T17:54:14.354Z,56.61
2023-05-21T17:56:42.473Z,56.60
2023-05-21T17:59:11.579Z,56.34
2023-05-21T18:01:40.239Z,56.61
2023-05-21T18:04:10.581Z,56.68
2023-05-21T18:06:39.235Z,57.02
2023-05-21T18:09:07.026Z,57.35
2023-05-21T18:11:34.994Z,57.61
2023-05-21T18:14:02.320Z,57.44
2023-05-21T18:16:33.513Z,57.57
2023-05-21T18:19:04.109Z,57.48
2023-05-21T18:21:32.465Z,57.45
2023-05-21T18:23:59.860Z,57.50
2023-05-21T18:26:27.597Z,57.35
2023-05-21T18:28:54.869Z,57.35
2023-05-21T18:31:22.231Z,57.28
2023-05-21T18:33:49.635Z,57.33
2023-05-21T18:36:17.184Z,57.64
2023-05-21T18:38:44.878Z,57.39
2023-05-21T18:41:12.274Z,57.11
2023-05-21T18:43:40.270Z,56.83
2023-05-21T18:46:07.795Z,56.86
2023-05-21T18:48:35.189Z,57.37
2023-05-21T18:51:02.740Z,57.44
2023-05-21T18:53:30.290Z,57.55
2023-05-21T18:55:57.860Z,57.40
2023-05-21T18:58:25.155Z,57.81
2023-05-21T19:00:52.442Z,58.03
2023-05-21T19:03:19.892Z,58.05
2023-05-21T19:05:47.289Z,57.70
2023-05-21T19:08:14.686Z,57.93
2023-05-21T19:10:42.183Z,58.08
2023-05-21T19:13:09.474Z,57.97
2023-05-21T19:15:36.853Z,57.60
2023-05-21T19:18:04.753Z,57.21
2023-05-21T19:20:32.372Z,57.11
2023-05-21T19:23:00.027Z,57.08
2023-05-21T19:25:27.472Z,57.03
2023-05-21T19:27:54.821Z,56.93
2023-05-21T19:30:22.062Z,57.06
2023-05-21T19:32:49.490Z,57.10
2023-05-21T19:35:16.942Z,57.06
2023-05-21T19:37:44.463Z,56.78
2023-05-21T19:40:12.365Z,56.79
2023-05-21T19:42:40.275Z,56.89
2023-05-21T19:45:08.821Z,56.40
2023-05-21T19:47:36.479Z,56.19
2023-05-21T19:50:04.460Z,56.15
2023-05-21T19:52:32.085Z,56.29
2023-05-21T19:54:59.451Z,56.48
2023-05-21T19:57:26.785Z,56.42
2023-05-21T19:59:54.258Z,56.41
2023-05-21T20:02:23.065Z,56.41
2023-05-21T20:04:51.001Z,56.35
2023-05-21T20:07:18.220Z,56.60
2023-05-21T20:09:45.530Z,56.52
2023-05-21T20:12:12.791Z,56.58
2023-05-21T20:14:40.201Z,56.81
2023-05-21T20:17:07.668Z,56.39
2023-05-21T20:19:35.792Z,56.31
2023-05-21T20:22:03.546Z,56.43
2023-05-21T20:24:30.943Z,56.31
2023-05-21T20:26:58.282Z,56.30
2023-05-21T20:29:25.652Z,56.16
2023-05-21T20:31:53.058Z,55.70
2023-05-21T20:34:20.328Z,55.83
2023-05-21T20:36:47.639Z,55.89
2023-05-21T20:39:14.998Z,56.00
2023-05-21T20:41:42.856Z,56.03
2023-05-21T20:44:10.545Z,56.40
2023-05-21T20:46:38.765Z,56.05
2023-05-21T20:49:07.185Z,55.94
2023-05-21T20:51:34.715Z,56.19
2023-05-21T20:54:02.153Z,56.14
2023-05-21T20:56:41.441Z,56.33
2023-05-21T20:59:11.161Z,56.24
2023-05-21T21:01:39.564Z,56.32
2023-05-21T21:04:07.107Z,56.33
2023-05-21T21:06:34.540Z,56.50
2023-05-21T21:09:02.190Z,56.71
2023-05-21T21:11:29.464Z,56.82
2023-05-21T21:13:57.072Z,56.95
2023-05-21T21:16:24.455Z,56.77
2023-05-21T21:18:51.948Z,56.99
2023-05-21T21:21:19.729Z,56.96
2023-05-21T21:23:46.989Z,56.99
2023-05-21T21:26:14.321Z,56.74
2023-05-21T21:28:41.708Z,56.75
2023-05-21T21:31:08.997Z,56.81
2023-05-21T21:33:36.490Z,56.80
2023-05-21T21:36:04.556Z,56.94
2023-05-21T21:38:32.063Z,56.88
2023-05-21T21:40:59.414Z,56.67
2023-05-21T21:43:26.686Z,56.66
2023-05-21T21:45:53.955Z,56.81
2023-05-21T21:48:21.258Z,56.68
2023-05-21T21:50:48.565Z,56.75
2023-05-21T21:53:15.850Z,56.81
2023-05-21T21:55:43.088Z,56.74
2023-05-21T21:58:10.473Z,56.61
2023-05-21T22:00:37.896Z,56.62
2023-05-21T22:03:05.458Z,56.58
2023-05-21T22:05:32.829Z,56.90
2023-05-21T22:08:00.171Z,57.01
2023-05-21T22:10:27.485Z,57.22
2023-05-21T22:12:54.827Z,57.32
2023-05-21T22:15:23.337Z,57.14
2023-05-21T22:17:50.915Z,57.14
2023-05-21T22:20:18.565Z,57.36
2023-05-21T22:22:46.326Z,57.26
2023-05-21T22:25:14.460Z,57.58
2023-05-21T22:27:42.337Z,57.74
2023-05-21T22:30:10.605Z,57.97
2023-05-21T22:32:38.237Z,57.81
2023-05-21T22:35:06.453Z,58.17
2023-05-21T22:37:34.146Z,58.31
2023-05-21T22:40:01.496Z,58.39
2023-05-21T22:42:28.848Z,58.54
2023-05-21T22:44:56.884Z,58.27
2023-05-21T22:47:24.339Z,58.04
2023-05-21T22:49:51.812Z,58.12
2023-05-21T22:52:20.918Z,58.43
2023-05-21T22:54:49.551Z,58.30
2023-05-21T22:57:16.801Z,58.16
2023-05-21T22:59:44.644Z,58.46
2023-05-21T23:02:14.119Z,58.49
2023-05-21T23:04:44.442Z,58.51
2023-05-21T23:07:12.651Z,58.52
2023-05-21T23:09:39.931Z,58.43
2023-05-21T23:12:08.398Z,58.58
2023-05-21T23:14:35.797Z,58.02
2023-05-21T23:17:03.064Z,58.15
2023-05-21T23:19:30.839Z,58.23
2023-05-21T23:21:58.418Z,58.23
2023-05-21T23:24:25.779Z,58.29
2023-05-21T23:26:53.138Z,58.32
2023-05-21T23:29:20.375Z,58.41
2023-05-21T23:31:47.817Z,58.45
2023-05-21T23:34:15.760Z,58.40
2023-05-21T23:36:43.060Z,58.31
2023-05-21T23:39:10.492Z,58.41
2023-05-21T23:41:37.958Z,58.50
2023-05-21T23:44:05.444Z,58.31
2023-05-21T23:46:32.825Z,58.41
2023-05-21T23:49:00.056Z,58.13
2023-05-21T23:51:27.820Z,58.13
2023-05-21T23:53:55.167Z,57.91
2023-05-21T23:56:22.483Z,58.11
2023-05-21T23:58:50.514Z,58.01
